Terminal Aerodrome Forecast
Issued by NWS

Home | Current Version | Previous Version | Text Only | Print | Product List | Glossary On
Versions: 1 2 3 4 5 6 7 8 9 10 11 12 13 14 15 16 17 18 19 20 21 22 23 24 25 26 27 28 29 30 31
000
FTUS46 KSGX 261854 AAA
TAFSAN
TAF AMD
KSAN 261854Z 2619/2724 18009KT P6SM VCFG SCT003
     FM262000 20010KT P6SM SKC
     FM262200 25010KT P6SM SKC
     FM270200 VRB04KT P6SM SKC
     FM271100 VRB02KT P6SM VCFG SCT002
     FM271500 VRB04KT P6SM FEW004
     FM271900 29010KT P6SM SKC=

USA.gov is the U.S. government's official web portal to all federal, state and local government web resources and services.